sensor_id;sensor_type;location;lat;lon;timestamp;temperature;humidity
10247;DHT22;5168;47.854;7.944;2023-06-10T00:01:47;16.90;95.40
10247;DHT22;5168;47.854;7.944;2023-06-10T00:04:14;16.90;94.30
10247;DHT22;5168;47.854;7.944;2023-06-10T00:06:41;16.10;93.90
10247;DHT22;5168;47.854;7.944;2023-06-10T00:09:07;16.50;95.10
10247;DHT22;5168;47.854;7.944;2023-06-10T00:11:40;16.80;94.60
10247;DHT22;5168;47.854;7.944;2023-06-10T00:19:00;16.60;93.90
10247;DHT22;5168;47.854;7.944;2023-06-10T00:21:30;17.00;95.80
10247;DHT22;5168;47.854;7.944;2023-06-10T00:24:03;16.40;94.70
10247;DHT22;5168;47.854;7.944;2023-06-10T00:26:29;16.30;95.70
10247;DHT22;5168;47.854;7.944;2023-06-10T00:28:55;16.70;95.70
10247;DHT22;5168;47.854;7.944;2023-06-10T00:38:38;17.00;96.00
10247;DHT22;5168;47.854;7.944;2023-06-10T00:41:05;16.10;95.70
10247;DHT22;5168;47.854;7.944;2023-06-10T00:45:57;16.30;96.20
10247;DHT22;5168;47.854;7.944;2023-06-10T00:48:22;16.70;96.70
10247;DHT22;5168;47.854;7.944;2023-06-10T00:50:48;16.20;96.60
10247;DHT22;5168;47.854;7.944;2023-06-10T00:53:14;16.00;96.70
10247;DHT22;5168;47.854;7.944;2023-06-10T00:55:41;16.40;95.20
10247;DHT22;5168;47.854;7.944;2023-06-10T00:58:07;16.40;97.00
10247;DHT22;5168;47.854;7.944;2023-06-10T01:00:32;16.50;97.20
10247;DHT22;5168;47.854;7.944;2023-06-10T01:02:58;16.00;96.30
10247;DHT22;5168;47.854;7.944;2023-06-10T01:05:24;16.30;95.80
10247;DHT22;5168;47.854;7.944;2023-06-10T01:08:09;16.20;96.10
10247;DHT22;5168;47.854;7.944;2023-06-10T01:11:04;15.90;97.90
10247;DHT22;5168;47.854;7.944;2023-06-10T01:13:35;16.40;98.30
10247;DHT22;5168;47.854;7.944;2023-06-10T01:16:02;15.90;98.10
10247;DHT22;5168;47.854;7.944;2023-06-10T01:18:31;16.20;98.30
10247;DHT22;5168;47.854;7.944;2023-06-10T01:20:57;16.10;98.00
10247;DHT22;5168;47.854;7.944;2023-06-10T01:23:23;16.50;98.40
10247;DHT22;5168;47.854;7.944;2023-06-10T01:26:03;16.10;96.70
10247;DHT22;5168;47.854;7.944;2023-06-10T01:31:28;16.10;98.20
10247;DHT22;5168;47.854;7.944;2023-06-10T01:34:00;16.00;96.60
10247;DHT22;5168;47.854;7.944;2023-06-10T01:36:26;15.70;97.10
10247;DHT22;5168;47.854;7.944;2023-06-10T01:38:53;16.50;98.20
10247;DHT22;5168;47.854;7.944;2023-06-10T01:41:20;16.40;98.50
10247;DHT22;5168;47.854;7.944;2023-06-10T01:43:47;16.40;98.60
10247;DHT22;5168;47.854;7.944;2023-06-10T01:46:14;15.70;98.30
10247;DHT22;5168;47.854;7.944;2023-06-10T01:48:41;15.80;98.00
10247;DHT22;5168;47.854;7.944;2023-06-10T01:51:07;15.60;98.60
10247;DHT22;5168;47.854;7.944;2023-06-10T01:53:33;15.60;98.40
10247;DHT22;5168;47.854;7.944;2023-06-10T01:55:58;15.60;96.90
10247;DHT22;5168;47.854;7.944;2023-06-10T01:58:24;15.40;97.80
10247;DHT22;5168;47.854;7.944;2023-06-10T02:00:50;16.00;97.90
10247;DHT22;5168;47.854;7.944;2023-06-10T02:08:07;16.40;98.10
10247;DHT22;5168;47.854;7.944;2023-06-10T02:17:51;15.80;96.60
10247;DHT22;5168;47.854;7.944;2023-06-10T02:20:17;15.90;98.50
10247;DHT22;5168;47.854;7.944;2023-06-10T02:22:43;15.80;98.60
10247;DHT22;5168;47.854;7.944;2023-06-10T02:25:10;16.10;98.00
10247;DHT22;5168;47.854;7.944;2023-06-10T02:32:27;15.10;98.70
10247;DHT22;5168;47.854;7.944;2023-06-10T02:37:19;15.20;99.10
10247;DHT22;5168;47.854;7.944;2023-06-10T02:39:45;15.70;99.50
10247;DHT22;5168;47.854;7.944;2023-06-10T02:42:11;15.10;99.20
10247;DHT22;5168;47.854;7.944;2023-06-10T02:44:37;15.30;98.30
10247;DHT22;5168;47.854;7.944;2023-06-10T02:51:55;14.80;99.60
10247;DHT22;5168;47.854;7.944;2023-06-10T02:54:22;15.20;99.90
10247;DHT22;5168;47.854;7.944;2023-06-10T02:56:48;15.30;99.90
10247;DHT22;5168;47.854;7.944;2023-06-10T02:59:14;15.00;99.90
10247;DHT22;5168;47.854;7.944;2023-06-10T03:01:40;14.90;99.60
10247;DHT22;5168;47.854;7.944;2023-06-10T03:04:06;14.80;99.90
10247;DHT22;5168;47.854;7.944;2023-06-10T03:06:32;14.60;99.90
10247;DHT22;5168;47.854;7.944;2023-06-10T03:09:01;14.70;99.90
10247;DHT22;5168;47.854;7.944;2023-06-10T03:11:27;15.10;99.90
10247;DHT22;5168;47.854;7.944;2023-06-10T03:13:52;14.90;99.90
10247;DHT22;5168;47.854;7.944;2023-06-10T03:16:21;14.40;99.90
10247;DHT22;5168;47.854;7.944;2023-06-10T03:18:46;14.30;99.90
10247;DHT22;5168;47.854;7.944;2023-06-10T03:26:04;14.20;99.90
10247;DHT22;5168;47.854;7.944;2023-06-10T03:28:33;13.90;99.90
10247;DHT22;5168;47.854;7.944;2023-06-10T03:35:51;13.70;99.90
10247;DHT22;5168;47.854;7.944;2023-06-10T03:43:09;14.40;99.90
10247;DHT22;5168;47.854;7.944;2023-06-10T03:45:34;14.10;99.90
10247;DHT22;5168;47.854;7.944;2023-06-10T03:48:01;14.10;99.90
10247;DHT22;5168;47.854;7.944;2023-06-10T03:50:26;14.10;99.90
10247;DHT22;5168;47.854;7.944;2023-06-10T03:52:52;14.30;99.90
10247;DHT22;5168;47.854;7.944;2023-06-10T03:57:47;14.50;99.90
10247;DHT22;5168;47.854;7.944;2023-06-10T04:00:13;14.30;99.90
10247;DHT22;5168;47.854;7.944;2023-06-10T04:02:39;14.60;99.90
10247;DHT22;5168;47.854;7.944;2023-06-10T04:05:19;14.10;99.90
10247;DHT22;5168;47.854;7.944;2023-06-10T04:07:48;14.70;99.90
10247;DHT22;5168;47.854;7.944;2023-06-10T04:10:14;13.80;99.90
10247;DHT22;5168;47.854;7.944;2023-06-10T04:12:40;14.50;99.90
10247;DHT22;5168;47.854;7.944;2023-06-10T04:15:06;14.70;99.90
10247;DHT22;5168;47.854;7.944;2023-06-10T04:17:32;14.30;99.90
10247;DHT22;5168;47.854;7.944;2023-06-10T04:19:58;14.70;99.90
10247;DHT22;5168;47.854;7.944;2023-06-10T04:22:23;14.20;99.90
10247;DHT22;5168;47.854;7.944;2023-06-10T04:29:41;14.00;99.90
10247;DHT22;5168;47.854;7.944;2023-06-10T04:32:07;14.40;99.90
10247;DHT22;5168;47.854;7.944;2023-06-10T04:34:33;14.50;99.90
10247;DHT22;5168;47.854;7.944;2023-06-10T04:36:59;14.30;99.90
10247;DHT22;5168;47.854;7.944;2023-06-10T04:41:51;14.30;99.90
10247;DHT22;5168;47.854;7.944;2023-06-10T04:44:17;14.30;99.90
10247;DHT22;5168;47.854;7.944;2023-06-10T04:46:42;14.00;99.90
10247;DHT22;5168;47.854;7.944;2023-06-10T04:49:08;14.90;99.90
10247;DHT22;5168;47.854;7.944;2023-06-10T04:51:33;14.20;99.90
10247;DHT22;5168;47.854;7.944;2023-06-10T04:53:59;15.30;99.90
10247;DHT22;5168;47.854;7.944;2023-06-10T04:58:58;15.90;99.90
10247;DHT22;5168;47.854;7.944;2023-06-10T05:01:24;15.30;99.90
10247;DHT22;5168;47.854;7.944;2023-06-10T05:03:49;16.30;99.90
10247;DHT22;5168;47.854;7.944;2023-06-10T05:11:07;16.30;99.90
10247;DHT22;5168;47.854;7.944;2023-06-10T05:15:58;17.00;99.90
10247;DHT22;5168;47.854;7.944;2023-06-10T05:18:24;16.80;99.90
10247;DHT22;5168;47.854;7.944;2023-06-10T05:20:50;17.20;99.90
10247;DHT22;5168;47.854;7.944;2023-06-10T05:23:15;17.20;99.90
10247;DHT22;5168;47.854;7.944;2023-06-10T05:25:41;16.70;99.90
10247;DHT22;5168;47.854;7.944;2023-06-10T05:30:35;17.30;99.90
10247;DHT22;5168;47.854;7.944;2023-06-10T05:33:01;17.60;99.90
10247;DHT22;5168;47.854;7.944;2023-06-10T05:35:27;17.70;99.90
10247;DHT22;5168;47.854;7.944;2023-06-10T05:42:44;18.30;99.90
10247;DHT22;5168;47.854;7.944;2023-06-10T05:45:10;17.90;99.90
10247;DHT22;5168;47.854;7.944;2023-06-10T05:47:36;18.00;99.90
10247;DHT22;5168;47.854;7.944;2023-06-10T05:50:01;18.00;99.90
10247;DHT22;5168;47.854;7.944;2023-06-10T05:52:27;18.40;99.90
10247;DHT22;5168;47.854;7.944;2023-06-10T05:54:53;18.60;99.90
10247;DHT22;5168;47.854;7.944;2023-06-10T05:59:45;19.30;99.90
10247;DHT22;5168;47.854;7.944;2023-06-10T06:02:11;18.60;99.90
10247;DHT22;5168;47.854;7.944;2023-06-10T06:04:36;19.20;99.90
10247;DHT22;5168;47.854;7.944;2023-06-10T06:07:02;18.90;99.00
10247;DHT22;5168;47.854;7.944;2023-06-10T06:09:28;19.30;99.50
10247;DHT22;5168;47.854;7.944;2023-06-10T06:11:53;19.60;99.30
10247;DHT22;5168;47.854;7.944;2023-06-10T06:14:19;20.00;99.30
10247;DHT22;5168;47.854;7.944;2023-06-10T06:16:44;20.30;98.30
10247;DHT22;5168;47.854;7.944;2023-06-10T06:19:10;20.50;99.30
10247;DHT22;5168;47.854;7.944;2023-06-10T06:24:02;20.00;99.50
10247;DHT22;5168;47.854;7.944;2023-06-10T06:26:28;20.90;99.40
10247;DHT22;5168;47.854;7.944;2023-06-10T06:28:53;21.00;98.80
10247;DHT22;5168;47.854;7.944;2023-06-10T06:33:45;20.90;98.10
10247;DHT22;5168;47.854;7.944;2023-06-10T06:36:10;20.70;97.80
10247;DHT22;5168;47.854;7.944;2023-06-10T06:38:36;20.90;97.00
10247;DHT22;5168;47.854;7.944;2023-06-10T06:41:01;21.00;96.90
10247;DHT22;5168;47.854;7.944;2023-06-10T06:43:29;21.70;96.80
10247;DHT22;5168;47.854;7.944;2023-06-10T06:45:56;21.90;96.70
10247;DHT22;5168;47.854;7.944;2023-06-10T06:48:22;21.70;96.00
10247;DHT22;5168;47.854;7.944;2023-06-10T06:50:47;21.90;95.90
10247;DHT22;5168;47.854;7.944;2023-06-10T06:53:13;22.40;96.40
10247;DHT22;5168;47.854;7.944;2023-06-10T06:55:38;22.60;95.50
10247;DHT22;5168;47.854;7.944;2023-06-10T06:58:04;22.50;95.90
10247;DHT22;5168;47.854;7.944;2023-06-10T07:00:30;22.10;95.90
10247;DHT22;5168;47.854;7.944;2023-06-10T07:02:56;22.20;95.80
10247;DHT22;5168;47.854;7.944;2023-06-10T07:05:23;22.70;94.30
10247;DHT22;5168;47.854;7.944;2023-06-10T07:07:48;22.50;94.70
10247;DHT22;5168;47.854;7.944;2023-06-10T07:10:23;22.30;94.50
10247;DHT22;5168;47.854;7.944;2023-06-10T07:12:49;23.00;93.00
10247;DHT22;5168;47.854;7.944;2023-06-10T07:15:15;22.60;93.00
10247;DHT22;5168;47.854;7.944;2023-06-10T07:17:41;22.40;93.00
10247;DHT22;5168;47.854;7.944;2023-06-10T07:20:07;22.70;92.30
10247;DHT22;5168;47.854;7.944;2023-06-10T07:22:33;22.70;92.10
10247;DHT22;5168;47.854;7.944;2023-06-10T07:24:58;22.70;92.60
10247;DHT22;5168;47.854;7.944;2023-06-10T07:27:24;23.30;94.10
10247;DHT22;5168;47.854;7.944;2023-06-10T07:29:50;23.50;94.40
10247;DHT22;5168;47.854;7.944;2023-06-10T07:32:16;23.70;94.20
10247;DHT22;5168;47.854;7.944;2023-06-10T07:34:42;23.60;93.00
10247;DHT22;5168;47.854;7.944;2023-06-10T07:37:07;24.00;93.20
10247;DHT22;5168;47.854;7.944;2023-06-10T07:39:34;23.80;92.80
10247;DHT22;5168;47.854;7.944;2023-06-10T07:42:00;24.30;92.90
10247;DHT22;5168;47.854;7.944;2023-06-10T07:44:25;24.20;92.40
10247;DHT22;5168;47.854;7.944;2023-06-10T07:46:51;24.70;92.70
10247;DHT22;5168;47.854;7.944;2023-06-10T07:49:16;24.50;91.90
10247;DHT22;5168;47.854;7.944;2023-06-10T07:51:42;24.60;91.40
10247;DHT22;5168;47.854;7.944;2023-06-10T07:54:08;25.00;93.00
10247;DHT22;5168;47.854;7.944;2023-06-10T07:56:33;25.30;92.10
10247;DHT22;5168;47.854;7.944;2023-06-10T07:58:59;25.30;92.10
10247;DHT22;5168;47.854;7.944;2023-06-10T08:01:24;25.50;91.90
10247;DHT22;5168;47.854;7.944;2023-06-10T08:03:50;25.80;90.80
10247;DHT22;5168;47.854;7.944;2023-06-10T08:06:15;25.80;90.50
10247;DHT22;5168;47.854;7.944;2023-06-10T08:08:42;25.80;90.30
10247;DHT22;5168;47.854;7.944;2023-06-10T08:11:11;26.00;89.00
10247;DHT22;5168;47.854;7.944;2023-06-10T08:13:37;25.80;89.30
10247;DHT22;5168;47.854;7.944;2023-06-10T08:16:04;25.80;83.80
10247;DHT22;5168;47.854;7.944;2023-06-10T08:18:30;25.90;82.40
10247;DHT22;5168;47.854;7.944;2023-06-10T08:20:55;25.50;84.90
10247;DHT22;5168;47.854;7.944;2023-06-10T08:23:21;25.80;89.90
10247;DHT22;5168;47.854;7.944;2023-06-10T08:25:46;25.70;89.00
10247;DHT22;5168;47.854;7.944;2023-06-10T08:28:12;26.30;90.10
10247;DHT22;5168;47.854;7.944;2023-06-10T08:30:37;26.80;88.40
10247;DHT22;5168;47.854;7.944;2023-06-10T08:33:03;26.70;88.00
10247;DHT22;5168;47.854;7.944;2023-06-10T08:35:29;26.80;86.60
10247;DHT22;5168;47.854;7.944;2023-06-10T08:37:55;27.10;84.60
10247;DHT22;5168;47.854;7.944;2023-06-10T08:40:20;27.10;84.80
10247;DHT22;5168;47.854;7.944;2023-06-10T08:43:00;27.20;81.20
10247;DHT22;5168;47.854;7.944;2023-06-10T08:45:30;26.90;83.90
10247;DHT22;5168;47.854;7.944;2023-06-10T08:48:05;26.70;82.50
10247;DHT22;5168;47.854;7.944;2023-06-10T08:50:34;26.60;83.50
10247;DHT22;5168;47.854;7.944;2023-06-10T08:53:01;26.50;84.00
10247;DHT22;5168;47.854;7.944;2023-06-10T08:55:32;26.70;82.30
10247;DHT22;5168;47.854;7.944;2023-06-10T08:58:01;26.80;80.80
10247;DHT22;5168;47.854;7.944;2023-06-10T09:00:28;27.10;78.80
10247;DHT22;5168;47.854;7.944;2023-06-10T09:02:54;27.10;79.90
10247;DHT22;5168;47.854;7.944;2023-06-10T09:05:20;27.00;80.50
10247;DHT22;5168;47.854;7.944;2023-06-10T09:07:48;26.60;78.80
10247;DHT22;5168;47.854;7.944;2023-06-10T09:10:14;26.00;77.70
10247;DHT22;5168;47.854;7.944;2023-06-10T09:12:40;25.10;82.50
10247;DHT22;5168;47.854;7.944;2023-06-10T09:15:06;24.80;81.60
10247;DHT22;5168;47.854;7.944;2023-06-10T09:17:32;24.90;82.20
10247;DHT22;5168;47.854;7.944;2023-06-10T09:19:59;25.30;83.60
10247;DHT22;5168;47.854;7.944;2023-06-10T09:22:25;24.80;85.00
10247;DHT22;5168;47.854;7.944;2023-06-10T09:25:01;25.10;86.60
10247;DHT22;5168;47.854;7.944;2023-06-10T09:27:30;24.90;85.30
10247;DHT22;5168;47.854;7.944;2023-06-10T09:29:56;24.10;86.50
10247;DHT22;5168;47.854;7.944;2023-06-10T09:32:23;24.00;81.80
10247;DHT22;5168;47.854;7.944;2023-06-10T09:34:49;24.20;85.60
10247;DHT22;5168;47.854;7.944;2023-06-10T09:37:23;24.20;88.40
10247;DHT22;5168;47.854;7.944;2023-06-10T09:40:05;23.40;85.60
10247;DHT22;5168;47.854;7.944;2023-06-10T09:42:35;23.60;85.80
10247;DHT22;5168;47.854;7.944;2023-06-10T09:45:05;24.00;87.20
10247;DHT22;5168;47.854;7.944;2023-06-10T09:47:30;23.40;88.00
10247;DHT22;5168;47.854;7.944;2023-06-10T09:49:56;23.60;89.50
10247;DHT22;5168;47.854;7.944;2023-06-10T09:52:23;23.70;90.80
10247;DHT22;5168;47.854;7.944;2023-06-10T09:54:53;24.00;91.80
10247;DHT22;5168;47.854;7.944;2023-06-10T09:57:20;23.70;91.90
10247;DHT22;5168;47.854;7.944;2023-06-10T09:59:46;24.20;92.10
10247;DHT22;5168;47.854;7.944;2023-06-10T10:02:16;25.00;92.80
10247;DHT22;5168;47.854;7.944;2023-06-10T10:04:42;25.00;92.40
10247;DHT22;5168;47.854;7.944;2023-06-10T10:07:09;26.60;92.10
10247;DHT22;5168;47.854;7.944;2023-06-10T10:09:38;25.40;91.50
10247;DHT22;5168;47.854;7.944;2023-06-10T10:12:13;25.40;91.00
10247;DHT22;5168;47.854;7.944;2023-06-10T10:14:45;25.10;91.10
10247;DHT22;5168;47.854;7.944;2023-06-10T10:17:11;24.50;92.60
10247;DHT22;5168;47.854;7.944;2023-06-10T10:19:46;24.20;92.20
10247;DHT22;5168;47.854;7.944;2023-06-10T10:22:25;24.10;92.50
10247;DHT22;5168;47.854;7.944;2023-06-10T10:24:53;23.40;92.50
10247;DHT22;5168;47.854;7.944;2023-06-10T10:27:55;23.40;93.10
10247;DHT22;5168;47.854;7.944;2023-06-10T10:30:22;23.00;93.20
10247;DHT22;5168;47.854;7.944;2023-06-10T10:33:00;22.70;94.00
10247;DHT22;5168;47.854;7.944;2023-06-10T10:35:31;22.90;94.40
10247;DHT22;5168;47.854;7.944;2023-06-10T10:37:58;22.50;95.00
10247;DHT22;5168;47.854;7.944;2023-06-10T10:40:24;22.30;94.70
10247;DHT22;5168;47.854;7.944;2023-06-10T10:42:51;22.70;95.30
10247;DHT22;5168;47.854;7.944;2023-06-10T10:45:17;22.80;96.40
10247;DHT22;5168;47.854;7.944;2023-06-10T10:47:45;21.70;96.00
10247;DHT22;5168;47.854;7.944;2023-06-10T10:50:18;22.50;96.80
10247;DHT22;5168;47.854;7.944;2023-06-10T10:55:26;22.30;97.20
10247;DHT22;5168;47.854;7.944;2023-06-10T10:58:06;22.40;97.00
10247;DHT22;5168;47.854;7.944;2023-06-10T11:03:05;22.70;96.70
10247;DHT22;5168;47.854;7.944;2023-06-10T11:05:40;22.50;96.40
10247;DHT22;5168;47.854;7.944;2023-06-10T11:08:08;22.70;96.80
10247;DHT22;5168;47.854;7.944;2023-06-10T11:10:41;22.40;97.10
10247;DHT22;5168;47.854;7.944;2023-06-10T11:13:19;22.50;97.30
10247;DHT22;5168;47.854;7.944;2023-06-10T11:15:47;22.20;98.20
10247;DHT22;5168;47.854;7.944;2023-06-10T11:18:14;22.40;98.40
10247;DHT22;5168;47.854;7.944;2023-06-10T11:31:19;22.60;97.00
10247;DHT22;5168;47.854;7.944;2023-06-10T11:33:47;22.70;96.40
10247;DHT22;5168;47.854;7.944;2023-06-10T11:36:13;21.90;96.80
10247;DHT22;5168;47.854;7.944;2023-06-10T11:38:40;22.50;97.80
10247;DHT22;5168;47.854;7.944;2023-06-10T11:41:07;22.10;97.00
10247;DHT22;5168;47.854;7.944;2023-06-10T11:43:33;22.20;97.70
10247;DHT22;5168;47.854;7.944;2023-06-10T11:45:59;22.20;98.10
10247;DHT22;5168;47.854;7.944;2023-06-10T11:48:25;22.30;98.60
10247;DHT22;5168;47.854;7.944;2023-06-10T11:50:53;22.20;98.30
10247;DHT22;5168;47.854;7.944;2023-06-10T11:53:19;22.10;98.60
10247;DHT22;5168;47.854;7.944;2023-06-10T11:55:49;21.70;98.80
10247;DHT22;5168;47.854;7.944;2023-06-10T11:58:17;21.80;98.50
10247;DHT22;5168;47.854;7.944;2023-06-10T12:00:50;21.60;98.90
10247;DHT22;5168;47.854;7.944;2023-06-10T12:03:17;22.10;99.10
10247;DHT22;5168;47.854;7.944;2023-06-10T12:05:59;22.40;98.20
10247;DHT22;5168;47.854;7.944;2023-06-10T12:08:26;22.50;98.90
10247;DHT22;5168;47.854;7.944;2023-06-10T12:10:53;22.80;98.80
10247;DHT22;5168;47.854;7.944;2023-06-10T12:13:19;22.60;98.30
10247;DHT22;5168;47.854;7.944;2023-06-10T12:15:45;22.40;98.40
10247;DHT22;5168;47.854;7.944;2023-06-10T12:18:23;23.50;99.80
10247;DHT22;5168;47.854;7.944;2023-06-10T12:20:50;23.50;99.90
10247;DHT22;5168;47.854;7.944;2023-06-10T12:23:17;24.60;99.10
10247;DHT22;5168;47.854;7.944;2023-06-10T12:25:53;24.90;98.70
10247;DHT22;5168;47.854;7.944;2023-06-10T12:28:26;20.90;95.50
10247;DHT22;5168;47.854;7.944;2023-06-10T12:31:05;24.60;96.80
10247;DHT22;5168;47.854;7.944;2023-06-10T12:33:31;24.80;97.00
10247;DHT22;5168;47.854;7.944;2023-06-10T12:35:57;23.90;96.40
10247;DHT22;5168;47.854;7.944;2023-06-10T12:38:23;23.90;96.30
10247;DHT22;5168;47.854;7.944;2023-06-10T12:40:52;23.60;96.60
10247;DHT22;5168;47.854;7.944;2023-06-10T12:43:22;23.30;96.80
10247;DHT22;5168;47.854;7.944;2023-06-10T12:45:49;23.50;97.30
10247;DHT22;5168;47.854;7.944;2023-06-10T12:48:23;23.10;97.50
10247;DHT22;5168;47.854;7.944;2023-06-10T12:50:53;23.50;98.10
10247;DHT22;5168;47.854;7.944;2023-06-10T12:53:20;23.50;98.10
10247;DHT22;5168;47.854;7.944;2023-06-10T12:55:46;23.70;98.30
10247;DHT22;5168;47.854;7.944;2023-06-10T12:58:12;23.20;98.20
10247;DHT22;5168;47.854;7.944;2023-06-10T13:00:38;23.60;97.90
10247;DHT22;5168;47.854;7.944;2023-06-10T13:03:05;24.30;98.30
10247;DHT22;5168;47.854;7.944;2023-06-10T13:05:31;24.80;97.90
10247;DHT22;5168;47.854;7.944;2023-06-10T13:07:58;24.80;96.30
10247;DHT22;5168;47.854;7.944;2023-06-10T13:10:23;25.40;94.70
10247;DHT22;5168;47.854;7.944;2023-06-10T13:12:50;25.50;94.50
10247;DHT22;5168;47.854;7.944;2023-06-10T13:15:16;26.40;91.60
10247;DHT22;5168;47.854;7.944;2023-06-10T13:17:43;26.10;91.20
10247;DHT22;5168;47.854;7.944;2023-06-10T13:20:09;26.30;90.00
10247;DHT22;5168;47.854;7.944;2023-06-10T13:22:35;25.50;92.50
10247;DHT22;5168;47.854;7.944;2023-06-10T13:25:05;25.40;94.70
10247;DHT22;5168;47.854;7.944;2023-06-10T13:27:33;25.60;95.10
10247;DHT22;5168;47.854;7.944;2023-06-10T13:29:59;25.30;97.00
10247;DHT22;5168;47.854;7.944;2023-06-10T13:32:25;24.90;98.50
10247;DHT22;5168;47.854;7.944;2023-06-10T13:34:50;24.30;98.30
10247;DHT22;5168;47.854;7.944;2023-06-10T13:37:16;23.50;99.30
10247;DHT22;5168;47.854;7.944;2023-06-10T13:39:45;22.70;99.90
10247;DHT22;5168;47.854;7.944;2023-06-10T13:42:16;22.00;99.90
10247;DHT22;5168;47.854;7.944;2023-06-10T13:47:08;21.60;99.90
10247;DHT22;5168;47.854;7.944;2023-06-10T13:49:33;21.60;99.90
10247;DHT22;5168;47.854;7.944;2023-06-10T13:51:59;20.80;99.90
10247;DHT22;5168;47.854;7.944;2023-06-10T13:54:24;20.80;99.90
10247;DHT22;5168;47.854;7.944;2023-06-10T13:56:50;20.60;99.90
10247;DHT22;5168;47.854;7.944;2023-06-10T13:59:15;20.50;99.90
10247;DHT22;5168;47.854;7.944;2023-06-10T14:01:41;21.30;99.90
10247;DHT22;5168;47.854;7.944;2023-06-10T14:04:07;20.90;99.90
10247;DHT22;5168;47.854;7.944;2023-06-10T14:06:33;21.10;99.90
10247;DHT22;5168;47.854;7.944;2023-06-10T14:08:59;21.00;99.90
10247;DHT22;5168;47.854;7.944;2023-06-10T14:11:25;21.40;99.90
10247;DHT22;5168;47.854;7.944;2023-06-10T14:13:51;22.10;99.90
10247;DHT22;5168;47.854;7.944;2023-06-10T14:16:16;22.40;99.90
10247;DHT22;5168;47.854;7.944;2023-06-10T14:18:42;22.40;99.90
10247;DHT22;5168;47.854;7.944;2023-06-10T14:21:07;21.90;99.90
10247;DHT22;5168;47.854;7.944;2023-06-10T14:28:26;23.40;99.90
10247;DHT22;5168;47.854;7.944;2023-06-10T14:30:53;23.80;99.90
10247;DHT22;5168;47.854;7.944;2023-06-10T14:33:18;24.30;99.90
10247;DHT22;5168;47.854;7.944;2023-06-10T14:35:44;24.50;99.90
10247;DHT22;5168;47.854;7.944;2023-06-10T14:38:09;25.00;99.90
10247;DHT22;5168;47.854;7.944;2023-06-10T14:40:35;24.90;99.90
10247;DHT22;5168;47.854;7.944;2023-06-10T14:43:01;25.20;99.90
10247;DHT22;5168;47.854;7.944;2023-06-10T14:45:29;25.20;99.90
10247;DHT22;5168;47.854;7.944;2023-06-10T14:47:54;25.30;99.90
10247;DHT22;5168;47.854;7.944;2023-06-10T14:50:20;26.00;99.90
10247;DHT22;5168;47.854;7.944;2023-06-10T14:52:46;25.70;99.90
10247;DHT22;5168;47.854;7.944;2023-06-10T14:55:11;26.00;99.90
10247;DHT22;5168;47.854;7.944;2023-06-10T14:57:37;26.00;99.40
10247;DHT22;5168;47.854;7.944;2023-06-10T15:00:03;26.10;99.10
10247;DHT22;5168;47.854;7.944;2023-06-10T15:02:29;26.10;98.90
10247;DHT22;5168;47.854;7.944;2023-06-10T15:04:54;26.50;98.60
10247;DHT22;5168;47.854;7.944;2023-06-10T15:07:20;26.20;98.40
10247;DHT22;5168;47.854;7.944;2023-06-10T15:09:45;26.30;98.30
10247;DHT22;5168;47.854;7.944;2023-06-10T15:12:11;26.30;98.30
10247;DHT22;5168;47.854;7.944;2023-06-10T15:14:36;25.40;96.90
10247;DHT22;5168;47.854;7.944;2023-06-10T15:17:02;26.30;96.50
10247;DHT22;5168;47.854;7.944;2023-06-10T15:19:28;26.30;95.00
10247;DHT22;5168;47.854;7.944;2023-06-10T15:21:53;26.10;95.40
10247;DHT22;5168;47.854;7.944;2023-06-10T15:24:19;25.70;97.00
10247;DHT22;5168;47.854;7.944;2023-06-10T15:26:45;25.20;96.50
10247;DHT22;5168;47.854;7.944;2023-06-10T15:29:10;25.40;96.60
10247;DHT22;5168;47.854;7.944;2023-06-10T15:31:36;25.70;95.90
10247;DHT22;5168;47.854;7.944;2023-06-10T15:34:02;25.10;95.80
10247;DHT22;5168;47.854;7.944;2023-06-10T15:36:27;23.90;96.60
10247;DHT22;5168;47.854;7.944;2023-06-10T15:38:53;23.50;98.00
10247;DHT22;5168;47.854;7.944;2023-06-10T15:41:19;23.80;98.90
10247;DHT22;5168;47.854;7.944;2023-06-10T15:43:45;23.20;99.40
10247;DHT22;5168;47.854;7.944;2023-06-10T15:46:11;22.20;99.60
10247;DHT22;5168;47.854;7.944;2023-06-10T15:51:03;22.60;99.90
10247;DHT22;5168;47.854;7.944;2023-06-10T15:53:28;22.40;99.90
10247;DHT22;5168;47.854;7.944;2023-06-10T15:55:54;21.80;99.90
10247;DHT22;5168;47.854;7.944;2023-06-10T15:58:20;21.90;99.90
10247;DHT22;5168;47.854;7.944;2023-06-10T16:00:45;22.30;99.90
10247;DHT22;5168;47.854;7.944;2023-06-10T16:03:11;21.40;99.90
10247;DHT22;5168;47.854;7.944;2023-06-10T16:05:36;21.90;99.90
10247;DHT22;5168;47.854;7.944;2023-06-10T16:08:02;21.20;99.90
10247;DHT22;5168;47.854;7.944;2023-06-10T16:10:27;21.00;99.90
10247;DHT22;5168;47.854;7.944;2023-06-10T16:12:53;21.30;99.90
10247;DHT22;5168;47.854;7.944;2023-06-10T16:15:18;21.50;99.90
10247;DHT22;5168;47.854;7.944;2023-06-10T16:17:44;21.50;99.90
10247;DHT22;5168;47.854;7.944;2023-06-10T16:20:11;20.70;99.90
10247;DHT22;5168;47.854;7.944;2023-06-10T16:22:36;21.30;99.90
10247;DHT22;5168;47.854;7.944;2023-06-10T16:25:02;21.20;99.90
10247;DHT22;5168;47.854;7.944;2023-06-10T16:27:28;21.20;99.90
10247;DHT22;5168;47.854;7.944;2023-06-10T16:29:53;20.40;99.90
10247;DHT22;5168;47.854;7.944;2023-06-10T16:32:19;20.50;99.90
10247;DHT22;5168;47.854;7.944;2023-06-10T16:34:44;20.70;99.90
10247;DHT22;5168;47.854;7.944;2023-06-10T16:37:10;21.10;99.90
10247;DHT22;5168;47.854;7.944;2023-06-10T16:39:36;20.50;99.90
10247;DHT22;5168;47.854;7.944;2023-06-10T16:42:02;21.20;99.90
10247;DHT22;5168;47.854;7.944;2023-06-10T16:46:53;20.60;99.90
10247;DHT22;5168;47.854;7.944;2023-06-10T16:49:19;21.10;99.90
10247;DHT22;5168;47.854;7.944;2023-06-10T16:51:44;21.10;99.90
10247;DHT22;5168;47.854;7.944;2023-06-10T16:54:10;20.50;99.90
10247;DHT22;5168;47.854;7.944;2023-06-10T16:56:35;21.30;99.90
10247;DHT22;5168;47.854;7.944;2023-06-10T16:59:01;21.30;99.90
10247;DHT22;5168;47.854;7.944;2023-06-10T17:01:27;21.20;99.90
10247;DHT22;5168;47.854;7.944;2023-06-10T17:06:18;20.90;99.90
10247;DHT22;5168;47.854;7.944;2023-06-10T17:08:44;20.60;99.90
10247;DHT22;5168;47.854;7.944;2023-06-10T17:11:11;20.60;99.90
10247;DHT22;5168;47.854;7.944;2023-06-10T17:13:36;20.90;99.90
10247;DHT22;5168;47.854;7.944;2023-06-10T17:16:02;21.00;99.90
10247;DHT22;5168;47.854;7.944;2023-06-10T17:18:28;20.90;99.90
10247;DHT22;5168;47.854;7.944;2023-06-10T17:20:53;21.50;99.90
10247;DHT22;5168;47.854;7.944;2023-06-10T17:23:19;21.40;99.90
10247;DHT22;5168;47.854;7.944;2023-06-10T17:25:45;21.70;99.90
10247;DHT22;5168;47.854;7.944;2023-06-10T17:28:10;21.20;99.90
10247;DHT22;5168;47.854;7.944;2023-06-10T17:30:36;21.30;99.90
10247;DHT22;5168;47.854;7.944;2023-06-10T17:33:02;21.10;99.90
10247;DHT22;5168;47.854;7.944;2023-06-10T17:35:27;21.40;99.90
10247;DHT22;5168;47.854;7.944;2023-06-10T17:37:53;21.30;99.90
10247;DHT22;5168;47.854;7.944;2023-06-10T17:40:18;20.90;99.90
10247;DHT22;5168;47.854;7.944;2023-06-10T17:42:44;21.00;99.90
10247;DHT22;5168;47.854;7.944;2023-06-10T17:45:10;21.70;99.90